LFMP/PGF METAR and TAF weather

Enter ICAO airport designator
Station Type Date Time Source
LFMP METAR 2019/10/18 10:30 UTC NOAA

LFMP 181030Z AUTO 04003KT 350V090 CAVOK 20/14 Q1015 TEMPO 10015KT


Station Type Date Time Source
LFMP Decoded METAR 2019/10/18 10:30 UTC NOAA

Perpignan, France (LFMP) 42-44N 002-52E 48M
Oct 18, 2019 - 06:30 AM EDT / 2019.10.18 1030 UTC
Wind: from the NE (040 degrees) at 3 MPH (3 KT) (direction variable):0
Visibility: greater than 7 mile(s):0
Temperature: 68 F (20 C)
Dew Point: 57 F (14 C)
Relative Humidity: 68%
Pressure (altimeter): 29.97 in. Hg (1015 hPa)
ob: LFMP 181030Z AUTO 04003KT 350V090 CAVOK 20/14 Q1015 TEMPO 10015KT
cycle: 10

Station Type Date Time Source
LFMP TAF 2019/10/18 09:26 UTC NOAA

TAF LFMP 180800Z 1809/1909 VRB05KT CAVOK
TEMPO 1812/1816 10015KT
TEMPO 1818/1907 1200 BR PROB30
TEMPO 1820/1903 0200 FG VV///

Example: see airport list